createdAt,value
2023-01-13T00:00:51.504Z,2.67
2023-01-13T00:05:53.772Z,2.47
2023-01-13T00:10:55.972Z,2.40
2023-01-13T00:15:59.618Z,2.17
2023-01-13T00:21:03.145Z,2.10
2023-01-13T00:26:08.599Z,1.97
2023-01-13T00:31:12.053Z,2.40
2023-01-13T00:36:15.743Z,2.40
2023-01-13T00:41:20.601Z,2.30
2023-01-13T00:46:23.187Z,2.77
2023-01-13T00:51:25.524Z,2.33
2023-01-13T00:56:39.813Z,2.10
2023-01-13T01:01:43.237Z,2.83
2023-01-13T01:06:45.531Z,3.33
2023-01-13T01:11:47.779Z,2.30
2023-01-13T01:16:49.964Z,1.97
2023-01-13T01:21:52.190Z,1.47
2023-01-13T01:26:54.422Z,2.07
2023-01-13T01:31:59.089Z,2.23
2023-01-13T01:37:01.328Z,1.77
2023-01-13T01:42:22.140Z,2.40
2023-01-13T01:47:25.367Z,2.00
2023-01-13T01:52:38.201Z,2.03
2023-01-13T01:58:12.388Z,2.10
2023-01-13T02:03:15.961Z,2.00
2023-01-13T02:08:18.638Z,2.00
2023-01-13T02:13:21.783Z,2.40
2023-01-13T02:18:32.600Z,2.20
2023-01-13T02:24:31.375Z,2.87
2023-01-13T02:30:15.429Z,2.20
2023-01-13T02:35:26.707Z,2.23
2023-01-13T02:40:40.445Z,1.97
2023-01-13T02:45:56.400Z,2.40
2023-01-13T02:51:11.048Z,2.30
2023-01-13T02:56:13.896Z,2.47
2023-01-13T03:01:17.127Z,2.10
2023-01-13T03:06:50.704Z,2.57
2023-01-13T03:12:17.667Z,2.00
2023-01-13T03:17:43.189Z,2.87
2023-01-13T03:22:53.521Z,2.67
2023-01-13T03:28:20.558Z,1.97
2023-01-13T03:33:35.192Z,2.70
2023-01-13T03:38:52.529Z,2.03
2023-01-13T03:44:22.436Z,3.27
2023-01-13T03:49:29.473Z,2.55
2023-01-13T03:54:33.392Z,2.37
2023-01-13T03:59:40.754Z,2.53
2023-01-13T04:05:03.274Z,2.73
2023-01-13T04:10:08.604Z,3.20
2023-01-13T04:15:11.069Z,2.17
2023-01-13T04:20:13.691Z,2.27
2023-01-13T04:25:16.129Z,2.30
2023-01-13T04:30:18.610Z,2.53
2023-01-13T04:35:20.901Z,2.50
2023-01-13T04:40:23.638Z,2.80
2023-01-13T04:45:25.897Z,2.77
2023-01-13T04:50:28.347Z,2.93
2023-01-13T04:55:32.067Z,2.13
2023-01-13T05:00:34.787Z,2.10
2023-01-13T05:05:38.208Z,2.00
2023-01-13T05:10:40.442Z,2.97
2023-01-13T05:16:01.933Z,3.70
2023-01-13T05:21:04.342Z,2.30
2023-01-13T05:26:06.877Z,2.83
2023-01-13T05:31:09.188Z,3.53
2023-01-13T05:36:11.521Z,3.20
2023-01-13T05:41:32.344Z,3.73
2023-01-13T05:46:38.233Z,3.20
2023-01-13T05:51:40.605Z,3.60
2023-01-13T05:56:42.786Z,3.63
2023-01-13T06:01:44.976Z,2.93
2023-01-13T06:06:48.864Z,3.60
2023-01-13T06:11:51.374Z,3.23
2023-01-13T06:16:54.829Z,3.30
2023-01-13T06:21:58.188Z,3.70
2023-01-13T06:27:00.435Z,3.57
2023-01-13T06:32:06.588Z,2.97
2023-01-13T06:37:09.241Z,3.53
2023-01-13T06:42:30.166Z,3.00
2023-01-13T06:47:33.716Z,3.97
2023-01-13T06:52:36.242Z,3.30
2023-01-13T06:57:49.884Z,3.70
2023-01-13T07:02:52.512Z,3.23
2023-01-13T07:07:54.823Z,3.90
2023-01-13T07:13:15.670Z,3.90
2023-01-13T07:18:17.888Z,3.87
2023-01-13T07:23:20.171Z,3.40
2023-01-13T07:28:22.799Z,3.37
2023-01-13T07:33:25.373Z,3.83
2023-01-13T07:38:27.908Z,3.47
2023-01-13T07:43:32.936Z,3.17
2023-01-13T07:48:35.574Z,4.40
2023-01-13T07:53:37.989Z,3.80
2023-01-13T07:58:40.281Z,3.40
2023-01-13T08:03:42.979Z,2.50
2023-01-13T08:08:45.264Z,2.90
2023-01-13T08:13:47.631Z,2.67
2023-01-13T08:18:50.207Z,2.53
2023-01-13T08:23:52.575Z,3.70
2023-01-13T08:28:54.879Z,3.20
2023-01-13T08:33:57.152Z,3.70
2023-01-13T08:38:59.442Z,3.60
2023-01-13T08:44:01.748Z,4.17
2023-01-13T08:49:04.278Z,3.83
2023-01-13T08:54:06.536Z,3.10
2023-01-13T08:59:16.815Z,3.50
2023-01-13T09:04:23.433Z,3.90
2023-01-13T09:09:29.418Z,3.53
2023-01-13T09:14:33.837Z,3.70
2023-01-13T09:19:36.248Z,3.17
2023-01-13T09:24:38.567Z,3.70
2023-01-13T09:29:41.206Z,3.47
2023-01-13T09:35:01.642Z,3.20
2023-01-13T09:40:26.317Z,3.43
2023-01-13T09:45:43.115Z,2.80
2023-01-13T09:51:09.844Z,2.70
2023-01-13T09:56:12.354Z,3.10
2023-01-13T10:01:39.593Z,3.70
2023-01-13T10:06:45.199Z,3.40
2023-01-13T10:12:06.551Z,3.67
2023-01-13T10:17:12.456Z,3.50
2023-01-13T10:22:36.344Z,3.00
2023-01-13T10:27:40.733Z,3.83
2023-01-13T10:32:47.242Z,3.80
2023-01-13T10:37:57.756Z,3.87
2023-01-13T10:43:06.974Z,4.30
2023-01-13T10:48:15.020Z,3.97
2023-01-13T10:53:25.480Z,4.63
2023-01-13T10:58:28.539Z,4.33
2023-01-13T11:03:43.233Z,3.67
2023-01-13T11:08:47.114Z,3.53
2023-01-13T11:14:10.285Z,3.27
2023-01-13T11:19:17.568Z,4.13
2023-01-13T11:24:40.346Z,3.67
2023-01-13T11:29:54.454Z,3.38
2023-01-13T11:35:01.392Z,4.00
2023-01-13T11:40:09.887Z,3.33
2023-01-13T11:45:44.827Z,2.93
2023-01-13T11:51:05.366Z,4.50
2023-01-13T11:56:14.329Z,4.80
2023-01-13T12:01:37.213Z,4.53
2023-01-13T12:06:40.524Z,4.23
2023-01-13T12:12:19.655Z,4.57
2023-01-13T12:17:37.242Z,4.03
2023-01-13T12:22:40.052Z,4.13
2023-01-13T12:27:50.124Z,4.53
2023-01-13T12:32:54.650Z,4.40
2023-01-13T12:38:14.160Z,4.30
2023-01-13T12:43:42.263Z,4.28
2023-01-13T12:49:02.431Z,4.27
2023-01-13T12:54:29.565Z,4.93
2023-01-13T12:59:35.623Z,3.97
2023-01-13T13:04:52.264Z,4.73
2023-01-13T13:10:02.274Z,4.73
2023-01-13T13:15:21.966Z,6.03
2023-01-13T13:20:57.110Z,5.33
2023-01-13T13:26:24.244Z,5.13
2023-01-13T13:31:32.754Z,5.30
2023-01-13T13:36:58.558Z,5.20
2023-01-13T13:42:41.619Z,5.43
2023-01-13T13:47:43.828Z,4.90
2023-01-13T13:52:54.643Z,5.07
2023-01-13T13:57:57.995Z,5.77
2023-01-13T14:03:02.055Z,5.73
2023-01-13T14:08:16.248Z,5.87
2023-01-13T14:13:23.120Z,6.90
2023-01-13T14:18:26.706Z,6.13
2023-01-13T14:23:31.816Z,6.37
2023-01-13T14:28:38.685Z,6.40
2023-01-13T14:33:46.421Z,6.53
2023-01-13T14:39:04.107Z,6.33
2023-01-13T14:44:30.293Z,6.37
2023-01-13T14:49:38.317Z,5.20
2023-01-13T14:54:54.125Z,5.63
2023-01-13T15:00:00.077Z,6.00
2023-01-13T15:05:24.818Z,7.07
2023-01-13T15:10:30.321Z,6.43
2023-01-13T15:15:37.446Z,5.73
2023-01-13T15:20:40.526Z,5.43
2023-01-13T15:25:43.655Z,6.17
2023-01-13T15:30:46.630Z,5.00
2023-01-13T15:35:53.291Z,5.63
2023-01-13T15:40:57.945Z,5.30
2023-01-13T15:46:19.666Z,5.20
2023-01-13T15:51:22.259Z,6.37
2023-01-13T15:56:26.927Z,5.53
2023-01-13T16:01:29.360Z,5.57
2023-01-13T16:06:36.506Z,6.07
2023-01-13T16:11:38.947Z,5.60
2023-01-13T16:16:42.523Z,5.80
2023-01-13T16:21:45.623Z,4.93
2023-01-13T16:26:47.976Z,4.77
2023-01-13T16:31:54.029Z,5.27
2023-01-13T16:36:56.985Z,5.00
2023-01-13T16:41:59.535Z,5.33
2023-01-13T16:47:02.648Z,5.40
2023-01-13T16:52:05.073Z,7.57
2023-01-13T16:57:08.132Z,5.57
2023-01-13T17:02:15.778Z,4.67
2023-01-13T17:07:18.455Z,5.73
2023-01-13T17:12:20.723Z,6.03
2023-01-13T17:17:25.676Z,6.00
2023-01-13T17:22:28.003Z,5.60
2023-01-13T17:27:30.525Z,4.90
2023-01-13T17:32:32.919Z,4.73
2023-01-13T17:37:35.610Z,5.77
2023-01-13T17:42:41.199Z,5.33
2023-01-13T17:47:43.586Z,5.53
2023-01-13T17:52:45.920Z,5.37
2023-01-13T17:57:53.257Z,5.10
2023-01-13T18:02:56.184Z,5.90
2023-01-13T18:07:58.514Z,5.20
2023-01-13T18:13:03.721Z,5.87
2023-01-13T18:18:06.247Z,6.30
2023-01-13T18:23:38.270Z,5.63
2023-01-13T18:28:40.736Z,5.33
2023-01-13T18:33:43.346Z,5.53
2023-01-13T18:38:56.125Z,5.27
2023-01-13T18:43:58.980Z,5.93
2023-01-13T18:49:01.574Z,5.70
2023-01-13T18:54:05.581Z,6.13
2023-01-13T18:59:11.385Z,5.23
2023-01-13T19:04:18.471Z,7.53
2023-01-13T19:09:25.026Z,5.40
2023-01-13T19:14:38.128Z,6.20
2023-01-13T19:19:47.202Z,6.33
2023-01-13T19:24:54.399Z,7.57
2023-01-13T19:30:00.744Z,6.53
2023-01-13T19:35:06.359Z,6.50
2023-01-13T19:40:24.554Z,7.97
2023-01-13T19:45:32.439Z,6.27
2023-01-13T19:50:53.123Z,7.40
2023-01-13T19:55:55.536Z,7.00
2023-01-13T20:00:57.880Z,6.83
2023-01-13T20:06:11.162Z,7.53
2023-01-13T20:11:31.233Z,6.17
2023-01-13T20:16:34.121Z,6.10
2023-01-13T20:21:38.018Z,6.30
2023-01-13T20:26:40.423Z,7.03
2023-01-13T20:31:48.070Z,7.30
2023-01-13T20:36:50.843Z,6.40
2023-01-13T20:42:12.479Z,6.40
2023-01-13T20:47:14.784Z,7.03
2023-01-13T20:52:17.242Z,7.10
2023-01-13T20:57:19.543Z,5.57
2023-01-13T21:02:23.497Z,6.83
2023-01-13T21:07:25.948Z,5.50
2023-01-13T21:12:46.785Z,5.97
2023-01-13T21:18:09.672Z,6.67
2023-01-13T21:23:12.096Z,6.27
2023-01-13T21:28:16.452Z,6.17
2023-01-13T21:33:18.882Z,5.90
2023-01-13T21:38:21.116Z,6.07
2023-01-13T21:43:41.869Z,4.53
2023-01-13T21:48:44.160Z,5.40
2023-01-13T21:53:46.543Z,6.17
2023-01-13T21:58:49.150Z,7.90
2023-01-13T22:04:09.812Z,5.47
2023-01-13T22:09:13.077Z,7.83
2023-01-13T22:14:15.640Z,6.57
2023-01-13T22:19:18.960Z,5.97
2023-01-13T22:24:21.695Z,5.60
2023-01-13T22:29:23.876Z,5.87
2023-01-13T22:34:26.074Z,5.97
2023-01-13T22:39:28.506Z,5.33
2023-01-13T22:44:30.915Z,6.77
2023-01-13T22:49:33.407Z,5.90
2023-01-13T22:54:35.596Z,5.07
2023-01-13T22:59:37.858Z,5.90
2023-01-13T23:04:40.152Z,5.10
2023-01-13T23:09:42.421Z,7.13
2023-01-13T23:14:44.602Z,4.97
2023-01-13T23:19:46.987Z,5.87
2023-01-13T23:24:49.398Z,5.00
2023-01-13T23:29:51.706Z,5.03
2023-01-13T23:34:53.955Z,5.77
2023-01-13T23:39:56.226Z,5.77
2023-01-13T23:45:01.339Z,5.17
2023-01-13T23:50:06.186Z,5.53
2023-01-13T23:55:09.008Z,5.23
